sensor_id;sensor_type;location;lat;lon;timestamp;temperature;humidity
12602;DHT22;30282;16.436;99.370;2023-07-13T00:01:39;26.60;99.90
12602;DHT22;30282;16.436;99.370;2023-07-13T00:04:10;26.60;99.90
12602;DHT22;30282;16.436;99.370;2023-07-13T00:06:39;26.50;99.90
12602;DHT22;30282;16.436;99.370;2023-07-13T00:09:14;26.40;99.90
12602;DHT22;30282;16.436;99.370;2023-07-13T00:11:44;26.50;99.90
12602;DHT22;30282;16.436;99.370;2023-07-13T00:14:14;26.50;99.90
12602;DHT22;30282;16.436;99.370;2023-07-13T00:16:44;26.50;99.90
12602;DHT22;30282;16.436;99.370;2023-07-13T00:19:14;26.50;99.90
12602;DHT22;30282;16.436;99.370;2023-07-13T00:21:44;26.60;99.90
12602;DHT22;30282;16.436;99.370;2023-07-13T00:24:16;26.70;99.90
12602;DHT22;30282;16.436;99.370;2023-07-13T00:26:51;26.80;99.90
12602;DHT22;30282;16.436;99.370;2023-07-13T00:29:21;26.90;99.90
12602;DHT22;30282;16.436;99.370;2023-07-13T00:31:53;26.90;99.90
12602;DHT22;30282;16.436;99.370;2023-07-13T00:34:25;27.00;99.90
12602;DHT22;30282;16.436;99.370;2023-07-13T00:36:54;27.10;99.90
12602;DHT22;30282;16.436;99.370;2023-07-13T00:39:26;27.10;99.90
12602;DHT22;30282;16.436;99.370;2023-07-13T00:41:55;27.30;99.90
12602;DHT22;30282;16.436;99.370;2023-07-13T00:44:25;27.30;99.90
12602;DHT22;30282;16.436;99.370;2023-07-13T00:46:54;27.40;99.90
12602;DHT22;30282;16.436;99.370;2023-07-13T00:49:27;27.50;99.90
12602;DHT22;30282;16.436;99.370;2023-07-13T00:51:58;27.60;99.90
12602;DHT22;30282;16.436;99.370;2023-07-13T00:54:32;27.60;99.90
12602;DHT22;30282;16.436;99.370;2023-07-13T00:57:04;27.70;99.90
12602;DHT22;30282;16.436;99.370;2023-07-13T00:59:35;27.80;99.90
12602;DHT22;30282;16.436;99.370;2023-07-13T01:02:05;27.90;99.90
12602;DHT22;30282;16.436;99.370;2023-07-13T01:04:35;27.90;99.90
12602;DHT22;30282;16.436;99.370;2023-07-13T01:07:06;27.90;99.90
12602;DHT22;30282;16.436;99.370;2023-07-13T01:09:37;27.90;99.90
12602;DHT22;30282;16.436;99.370;2023-07-13T01:12:07;28.00;99.90
12602;DHT22;30282;16.436;99.370;2023-07-13T01:14:37;28.10;99.90
12602;DHT22;30282;16.436;99.370;2023-07-13T01:17:08;28.10;99.90
12602;DHT22;30282;16.436;99.370;2023-07-13T01:19:39;28.20;99.90
12602;DHT22;30282;16.436;99.370;2023-07-13T01:22:12;28.30;99.90
12602;DHT22;30282;16.436;99.370;2023-07-13T01:24:43;28.40;99.90
12602;DHT22;30282;16.436;99.370;2023-07-13T01:27:13;28.40;99.90
12602;DHT22;30282;16.436;99.370;2023-07-13T01:29:44;28.50;99.90
12602;DHT22;30282;16.436;99.370;2023-07-13T01:32:16;28.50;99.90
12602;DHT22;30282;16.436;99.370;2023-07-13T01:34:51;28.70;99.90
12602;DHT22;30282;16.436;99.370;2023-07-13T01:37:23;28.80;99.90
12602;DHT22;30282;16.436;99.370;2023-07-13T01:59:36;29.00;99.90
12602;DHT22;30282;16.436;99.370;2023-07-13T02:02:06;29.40;99.90
12602;DHT22;30282;16.436;99.370;2023-07-13T02:04:36;29.50;99.90
12602;DHT22;30282;16.436;99.370;2023-07-13T02:07:05;29.60;99.90
12602;DHT22;30282;16.436;99.370;2023-07-13T02:09:35;29.70;99.90
12602;DHT22;30282;16.436;99.370;2023-07-13T02:12:05;29.70;99.90
12602;DHT22;30282;16.436;99.370;2023-07-13T02:14:36;29.80;99.90
12602;DHT22;30282;16.436;99.370;2023-07-13T02:17:05;29.80;99.90
12602;DHT22;30282;16.436;99.370;2023-07-13T02:19:35;29.90;99.90
12602;DHT22;30282;16.436;99.370;2023-07-13T02:22:05;30.00;99.90
12602;DHT22;30282;16.436;99.370;2023-07-13T02:24:34;30.00;99.90
12602;DHT22;30282;16.436;99.370;2023-07-13T02:27:03;30.10;99.90
12602;DHT22;30282;16.436;99.370;2023-07-13T02:29:33;30.30;99.90
12602;DHT22;30282;16.436;99.370;2023-07-13T02:32:04;30.40;99.90
12602;DHT22;30282;16.436;99.370;2023-07-13T02:34:34;30.60;99.90
12602;DHT22;30282;16.436;99.370;2023-07-13T02:37:04;30.60;99.90
12602;DHT22;30282;16.436;99.370;2023-07-13T02:39:33;30.70;99.90
12602;DHT22;30282;16.436;99.370;2023-07-13T02:42:02;30.70;99.90
12602;DHT22;30282;16.436;99.370;2023-07-13T02:44:32;30.80;99.90
12602;DHT22;30282;16.436;99.370;2023-07-13T02:47:02;30.90;99.90
12602;DHT22;30282;16.436;99.370;2023-07-13T02:49:34;31.00;99.90
12602;DHT22;30282;16.436;99.370;2023-07-13T02:52:04;31.00;99.90
12602;DHT22;30282;16.436;99.370;2023-07-13T02:54:36;31.20;99.90
12602;DHT22;30282;16.436;99.370;2023-07-13T02:57:06;31.20;99.90
12602;DHT22;30282;16.436;99.370;2023-07-13T02:59:35;31.30;99.90
12602;DHT22;30282;16.436;99.370;2023-07-13T03:02:07;31.30;99.90
12602;DHT22;30282;16.436;99.370;2023-07-13T03:04:39;31.50;99.90
12602;DHT22;30282;16.436;99.370;2023-07-13T03:07:09;31.50;99.90
12602;DHT22;30282;16.436;99.370;2023-07-13T03:09:49;31.60;99.90
12602;DHT22;30282;16.436;99.370;2023-07-13T03:12:22;31.70;99.90
12602;DHT22;30282;16.436;99.370;2023-07-13T03:14:52;31.80;99.90
12602;DHT22;30282;16.436;99.370;2023-07-13T03:17:23;31.70;99.90
12602;DHT22;30282;16.436;99.370;2023-07-13T03:19:52;31.80;99.90
12602;DHT22;30282;16.436;99.370;2023-07-13T03:22:21;31.90;99.90
12602;DHT22;30282;16.436;99.370;2023-07-13T03:24:50;32.00;99.90
12602;DHT22;30282;16.436;99.370;2023-07-13T03:27:20;32.00;99.90
12602;DHT22;30282;16.436;99.370;2023-07-13T03:29:49;32.10;99.90
12602;DHT22;30282;16.436;99.370;2023-07-13T03:32:18;32.20;99.90
12602;DHT22;30282;16.436;99.370;2023-07-13T03:34:50;32.20;99.90
12602;DHT22;30282;16.436;99.370;2023-07-13T03:37:19;32.40;99.90
12602;DHT22;30282;16.436;99.370;2023-07-13T03:39:48;32.40;99.90
12602;DHT22;30282;16.436;99.370;2023-07-13T03:42:17;32.50;99.90
12602;DHT22;30282;16.436;99.370;2023-07-13T03:44:46;32.60;99.90
12602;DHT22;30282;16.436;99.370;2023-07-13T03:47:19;32.70;99.90
12602;DHT22;30282;16.436;99.370;2023-07-13T03:49:50;32.70;99.90
12602;DHT22;30282;16.436;99.370;2023-07-13T03:52:20;32.70;99.90
12602;DHT22;30282;16.436;99.370;2023-07-13T03:54:49;32.80;99.90
12602;DHT22;30282;16.436;99.370;2023-07-13T03:57:19;32.80;99.90
12602;DHT22;30282;16.436;99.370;2023-07-13T03:59:48;32.80;99.90
12602;DHT22;30282;16.436;99.370;2023-07-13T04:02:18;32.90;99.90
12602;DHT22;30282;16.436;99.370;2023-07-13T04:04:49;32.90;99.90
12602;DHT22;30282;16.436;99.370;2023-07-13T04:07:18;32.80;99.90
12602;DHT22;30282;16.436;99.370;2023-07-13T04:09:47;32.90;99.90
12602;DHT22;30282;16.436;99.370;2023-07-13T04:12:17;32.90;99.90
12602;DHT22;30282;16.436;99.370;2023-07-13T04:14:46;32.80;99.90
12602;DHT22;30282;16.436;99.370;2023-07-13T04:17:15;32.80;99.90
12602;DHT22;30282;16.436;99.370;2023-07-13T04:19:44;32.90;99.90
12602;DHT22;30282;16.436;99.370;2023-07-13T04:22:15;33.00;99.90
12602;DHT22;30282;16.436;99.370;2023-07-13T04:24:45;33.00;99.90
12602;DHT22;30282;16.436;99.370;2023-07-13T04:27:14;33.00;99.90
12602;DHT22;30282;16.436;99.370;2023-07-13T04:29:43;33.10;99.90
12602;DHT22;30282;16.436;99.370;2023-07-13T04:32:14;33.10;99.90
12602;DHT22;30282;16.436;99.370;2023-07-13T04:34:46;33.30;99.90
12602;DHT22;30282;16.436;99.370;2023-07-13T04:37:21;33.30;99.90
12602;DHT22;30282;16.436;99.370;2023-07-13T04:39:51;33.40;99.90
12602;DHT22;30282;16.436;99.370;2023-07-13T04:42:20;33.40;99.90
12602;DHT22;30282;16.436;99.370;2023-07-13T04:44:50;33.40;99.90
12602;DHT22;30282;16.436;99.370;2023-07-13T04:47:19;33.50;99.90
12602;DHT22;30282;16.436;99.370;2023-07-13T04:49:48;33.50;99.90
12602;DHT22;30282;16.436;99.370;2023-07-13T04:52:17;33.60;99.90
12602;DHT22;30282;16.436;99.370;2023-07-13T04:54:48;33.70;99.90
12602;DHT22;30282;16.436;99.370;2023-07-13T04:57:18;33.70;99.90
12602;DHT22;30282;16.436;99.370;2023-07-13T04:59:47;33.80;99.90
12602;DHT22;30282;16.436;99.370;2023-07-13T05:02:16;33.80;99.90
12602;DHT22;30282;16.436;99.370;2023-07-13T05:04:47;33.80;99.90
12602;DHT22;30282;16.436;99.370;2023-07-13T05:07:17;33.80;99.90
12602;DHT22;30282;16.436;99.370;2023-07-13T05:09:48;33.80;99.90
12602;DHT22;30282;16.436;99.370;2023-07-13T05:12:17;33.80;99.90
12602;DHT22;30282;16.436;99.370;2023-07-13T05:14:49;33.70;99.90
12602;DHT22;30282;16.436;99.370;2023-07-13T05:17:18;33.80;99.90
12602;DHT22;30282;16.436;99.370;2023-07-13T05:19:48;33.90;99.90
12602;DHT22;30282;16.436;99.370;2023-07-13T05:22:17;33.80;99.90
12602;DHT22;30282;16.436;99.370;2023-07-13T05:24:46;33.90;99.90
12602;DHT22;30282;16.436;99.370;2023-07-13T05:27:17;33.90;99.90
12602;DHT22;30282;16.436;99.370;2023-07-13T05:29:46;34.00;99.90
12602;DHT22;30282;16.436;99.370;2023-07-13T05:32:15;34.00;99.90
12602;DHT22;30282;16.436;99.370;2023-07-13T05:34:45;34.10;99.90
12602;DHT22;30282;16.436;99.370;2023-07-13T05:37:17;34.20;99.90
12602;DHT22;30282;16.436;99.370;2023-07-13T05:39:46;34.20;99.90
12602;DHT22;30282;16.436;99.370;2023-07-13T05:42:17;34.40;99.90
12602;DHT22;30282;16.436;99.370;2023-07-13T05:44:46;34.40;99.90
12602;DHT22;30282;16.436;99.370;2023-07-13T05:47:16;34.40;99.90
12602;DHT22;30282;16.436;99.370;2023-07-13T05:49:45;34.50;99.90
12602;DHT22;30282;16.436;99.370;2023-07-13T05:52:14;34.40;99.90
12602;DHT22;30282;16.436;99.370;2023-07-13T05:54:44;34.40;99.90
12602;DHT22;30282;16.436;99.370;2023-07-13T05:57:22;34.60;99.90
12602;DHT22;30282;16.436;99.370;2023-07-13T05:59:51;34.60;99.90
12602;DHT22;30282;16.436;99.370;2023-07-13T06:02:20;34.70;99.90
12602;DHT22;30282;16.436;99.370;2023-07-13T06:04:54;34.70;99.90
12602;DHT22;30282;16.436;99.370;2023-07-13T06:07:24;34.80;99.90
12602;DHT22;30282;16.436;99.370;2023-07-13T06:09:53;34.80;99.90
12602;DHT22;30282;16.436;99.370;2023-07-13T06:12:24;34.80;99.90
12602;DHT22;30282;16.436;99.370;2023-07-13T06:14:53;34.90;99.90
12602;DHT22;30282;16.436;99.370;2023-07-13T06:17:25;34.90;99.90
12602;DHT22;30282;16.436;99.370;2023-07-13T06:19:58;34.90;99.90
12602;DHT22;30282;16.436;99.370;2023-07-13T06:22:27;34.90;99.90
12602;DHT22;30282;16.436;99.370;2023-07-13T06:24:57;34.90;99.90
12602;DHT22;30282;16.436;99.370;2023-07-13T06:27:31;34.90;99.90
12602;DHT22;30282;16.436;99.370;2023-07-13T06:30:03;34.80;99.90
12602;DHT22;30282;16.436;99.370;2023-07-13T06:32:33;34.60;99.90
12602;DHT22;30282;16.436;99.370;2023-07-13T06:35:02;34.50;99.90
12602;DHT22;30282;16.436;99.370;2023-07-13T06:37:31;34.60;99.90
12602;DHT22;30282;16.436;99.370;2023-07-13T06:40:01;34.70;99.90
12602;DHT22;30282;16.436;99.370;2023-07-13T06:42:32;34.60;99.90
12602;DHT22;30282;16.436;99.370;2023-07-13T06:45:01;34.50;99.90
12602;DHT22;30282;16.436;99.370;2023-07-13T06:47:31;34.50;99.90
12602;DHT22;30282;16.436;99.370;2023-07-13T06:50:00;34.50;99.90
12602;DHT22;30282;16.436;99.370;2023-07-13T06:52:29;34.60;99.90
12602;DHT22;30282;16.436;99.370;2023-07-13T06:54:59;34.60;99.90
12602;DHT22;30282;16.436;99.370;2023-07-13T06:57:28;34.70;99.90
12602;DHT22;30282;16.436;99.370;2023-07-13T06:59:59;34.80;99.90
12602;DHT22;30282;16.436;99.370;2023-07-13T07:02:30;34.70;99.90
12602;DHT22;30282;16.436;99.370;2023-07-13T07:05:01;34.70;99.90
12602;DHT22;30282;16.436;99.370;2023-07-13T07:07:30;34.70;99.90
12602;DHT22;30282;16.436;99.370;2023-07-13T07:10:00;34.70;99.90
12602;DHT22;30282;16.436;99.370;2023-07-13T07:12:30;34.60;99.90
12602;DHT22;30282;16.436;99.370;2023-07-13T07:15:03;34.60;99.90
12602;DHT22;30282;16.436;99.370;2023-07-13T07:17:32;34.60;99.90
12602;DHT22;30282;16.436;99.370;2023-07-13T07:20:01;34.50;99.90
12602;DHT22;30282;16.436;99.370;2023-07-13T07:22:31;34.60;99.90
12602;DHT22;30282;16.436;99.370;2023-07-13T07:25:03;34.60;99.90
12602;DHT22;30282;16.436;99.370;2023-07-13T07:27:33;34.60;99.90
12602;DHT22;30282;16.436;99.370;2023-07-13T07:30:05;34.70;99.90
12602;DHT22;30282;16.436;99.370;2023-07-13T07:32:34;34.80;99.90
12602;DHT22;30282;16.436;99.370;2023-07-13T07:35:06;34.90;99.90
12602;DHT22;30282;16.436;99.370;2023-07-13T07:37:36;35.10;99.90
12602;DHT22;30282;16.436;99.370;2023-07-13T07:40:07;35.20;99.90
12602;DHT22;30282;16.436;99.370;2023-07-13T07:42:36;35.20;99.90
12602;DHT22;30282;16.436;99.370;2023-07-13T07:45:08;35.20;99.90
12602;DHT22;30282;16.436;99.370;2023-07-13T07:47:38;35.20;99.90
12602;DHT22;30282;16.436;99.370;2023-07-13T07:50:11;35.20;99.90
12602;DHT22;30282;16.436;99.370;2023-07-13T07:52:43;35.20;99.90
12602;DHT22;30282;16.436;99.370;2023-07-13T07:55:12;35.20;99.90
12602;DHT22;30282;16.436;99.370;2023-07-13T07:57:41;35.20;99.90
12602;DHT22;30282;16.436;99.370;2023-07-13T08:00:13;35.10;99.90
12602;DHT22;30282;16.436;99.370;2023-07-13T08:02:43;35.10;99.90
12602;DHT22;30282;16.436;99.370;2023-07-13T08:05:12;35.20;99.90
12602;DHT22;30282;16.436;99.370;2023-07-13T08:07:41;35.30;99.90
12602;DHT22;30282;16.436;99.370;2023-07-13T08:10:10;35.30;99.90
12602;DHT22;30282;16.436;99.370;2023-07-13T08:12:40;35.30;99.90
12602;DHT22;30282;16.436;99.370;2023-07-13T08:15:14;35.10;99.90
12602;DHT22;30282;16.436;99.370;2023-07-13T08:17:44;35.00;99.90
12602;DHT22;30282;16.436;99.370;2023-07-13T08:20:13;35.10;99.90
12602;DHT22;30282;16.436;99.370;2023-07-13T08:22:42;35.20;99.90
12602;DHT22;30282;16.436;99.370;2023-07-13T08:25:11;35.20;99.90
12602;DHT22;30282;16.436;99.370;2023-07-13T08:27:40;35.30;99.90
12602;DHT22;30282;16.436;99.370;2023-07-13T08:30:10;35.20;99.90
12602;DHT22;30282;16.436;99.370;2023-07-13T08:32:41;35.10;99.90
12602;DHT22;30282;16.436;99.370;2023-07-13T08:35:10;35.10;99.90
12602;DHT22;30282;16.436;99.370;2023-07-13T08:37:40;35.20;99.90
12602;DHT22;30282;16.436;99.370;2023-07-13T08:40:13;35.20;99.90
12602;DHT22;30282;16.436;99.370;2023-07-13T08:42:46;35.30;99.90
12602;DHT22;30282;16.436;99.370;2023-07-13T08:45:22;35.20;99.90
12602;DHT22;30282;16.436;99.370;2023-07-13T08:47:55;35.00;99.90
12602;DHT22;30282;16.436;99.370;2023-07-13T08:50:31;35.00;99.90
12602;DHT22;30282;16.436;99.370;2023-07-13T08:53:03;35.00;99.90
12602;DHT22;30282;16.436;99.370;2023-07-13T08:55:35;35.10;99.90
12602;DHT22;30282;16.436;99.370;2023-07-13T08:58:10;35.20;99.90
12602;DHT22;30282;16.436;99.370;2023-07-13T09:00:46;35.20;99.90
12602;DHT22;30282;16.436;99.370;2023-07-13T09:03:23;35.30;99.90
12602;DHT22;30282;16.436;99.370;2023-07-13T09:05:56;35.20;99.90
12602;DHT22;30282;16.436;99.370;2023-07-13T09:08:41;35.10;99.90
12602;DHT22;30282;16.436;99.370;2023-07-13T09:11:26;35.00;99.90
12602;DHT22;30282;16.436;99.370;2023-07-13T09:14:03;34.90;99.90
12602;DHT22;30282;16.436;99.370;2023-07-13T09:16:36;34.80;99.90
12602;DHT22;30282;16.436;99.370;2023-07-13T09:19:13;34.80;99.90
12602;DHT22;30282;16.436;99.370;2023-07-13T09:21:49;34.80;99.90
12602;DHT22;30282;16.436;99.370;2023-07-13T09:24:36;34.80;99.90
12602;DHT22;30282;16.436;99.370;2023-07-13T09:27:19;34.80;99.90
12602;DHT22;30282;16.436;99.370;2023-07-13T09:29:54;34.70;99.90
12602;DHT22;30282;16.436;99.370;2023-07-13T09:32:26;34.70;99.90
12602;DHT22;30282;16.436;99.370;2023-07-13T09:35:00;34.70;99.90
12602;DHT22;30282;16.436;99.370;2023-07-13T09:37:32;34.70;99.90
12602;DHT22;30282;16.436;99.370;2023-07-13T09:40:04;34.70;99.90
12602;DHT22;30282;16.436;99.370;2023-07-13T09:42:36;34.70;99.90
12602;DHT22;30282;16.436;99.370;2023-07-13T09:45:06;34.80;99.90
12602;DHT22;30282;16.436;99.370;2023-07-13T09:47:39;34.80;99.90
12602;DHT22;30282;16.436;99.370;2023-07-13T09:50:15;34.80;99.90
12602;DHT22;30282;16.436;99.370;2023-07-13T09:52:46;34.80;99.90
12602;DHT22;30282;16.436;99.370;2023-07-13T09:55:26;34.80;99.90
12602;DHT22;30282;16.436;99.370;2023-07-13T09:57:55;34.80;99.90
12602;DHT22;30282;16.436;99.370;2023-07-13T10:00:27;34.80;99.90
12602;DHT22;30282;16.436;99.370;2023-07-13T10:03:04;34.80;99.90
12602;DHT22;30282;16.436;99.370;2023-07-13T10:05:43;34.70;99.90
12602;DHT22;30282;16.436;99.370;2023-07-13T10:08:24;34.60;99.90
12602;DHT22;30282;16.436;99.370;2023-07-13T10:11:02;34.50;99.90
12602;DHT22;30282;16.436;99.370;2023-07-13T10:13:39;34.40;99.90
12602;DHT22;30282;16.436;99.370;2023-07-13T10:16:10;34.50;99.90
12602;DHT22;30282;16.436;99.370;2023-07-13T10:18:43;34.50;99.90
12602;DHT22;30282;16.436;99.370;2023-07-13T10:21:17;34.50;99.90
12602;DHT22;30282;16.436;99.370;2023-07-13T10:23:55;34.40;99.90
12602;DHT22;30282;16.436;99.370;2023-07-13T10:26:27;34.30;99.90
12602;DHT22;30282;16.436;99.370;2023-07-13T10:29:04;34.20;99.90
12602;DHT22;30282;16.436;99.370;2023-07-13T10:31:37;34.20;99.90
12602;DHT22;30282;16.436;99.370;2023-07-13T10:34:11;34.10;99.90
12602;DHT22;30282;16.436;99.370;2023-07-13T10:36:44;34.00;99.90
12602;DHT22;30282;16.436;99.370;2023-07-13T10:39:17;33.90;99.90
12602;DHT22;30282;16.436;99.370;2023-07-13T10:41:50;33.70;99.90
12602;DHT22;30282;16.436;99.370;2023-07-13T10:44:23;33.50;99.90
12602;DHT22;30282;16.436;99.370;2023-07-13T10:47:00;33.40;99.90
12602;DHT22;30282;16.436;99.370;2023-07-13T10:49:31;33.30;99.90
12602;DHT22;30282;16.436;99.370;2023-07-13T10:52:04;33.30;99.90
12602;DHT22;30282;16.436;99.370;2023-07-13T10:54:36;33.20;99.90
12602;DHT22;30282;16.436;99.370;2023-07-13T10:57:15;33.00;99.90
12602;DHT22;30282;16.436;99.370;2023-07-13T10:59:48;32.60;99.90
12602;DHT22;30282;16.436;99.370;2023-07-13T11:02:26;32.30;99.90
12602;DHT22;30282;16.436;99.370;2023-07-13T11:04:58;31.30;99.90
12602;DHT22;30282;16.436;99.370;2023-07-13T11:07:30;31.10;99.90
12602;DHT22;30282;16.436;99.370;2023-07-13T11:10:05;31.00;99.90
12602;DHT22;30282;16.436;99.370;2023-07-13T11:13:00;31.10;99.90
12602;DHT22;30282;16.436;99.370;2023-07-13T11:15:43;31.00;99.90
12602;DHT22;30282;16.436;99.370;2023-07-13T11:18:23;31.00;99.90
12602;DHT22;30282;16.436;99.370;2023-07-13T11:20:52;31.00;99.90
12602;DHT22;30282;16.436;99.370;2023-07-13T11:23:45;30.80;99.90
12602;DHT22;30282;16.436;99.370;2023-07-13T11:26:50;30.40;99.90
12602;DHT22;30282;16.436;99.370;2023-07-13T11:29:27;30.20;99.90
12602;DHT22;30282;16.436;99.370;2023-07-13T11:34:51;29.70;99.90
12602;DHT22;30282;16.436;99.370;2023-07-13T11:37:20;29.50;99.90
12602;DHT22;30282;16.436;99.370;2023-07-13T11:39:52;29.30;99.90
12602;DHT22;30282;16.436;99.370;2023-07-13T11:42:22;29.10;99.90
12602;DHT22;30282;16.436;99.370;2023-07-13T11:44:52;29.10;99.90
12602;DHT22;30282;16.436;99.370;2023-07-13T11:47:23;29.00;99.90
12602;DHT22;30282;16.436;99.370;2023-07-13T11:49:55;28.90;99.90
12602;DHT22;30282;16.436;99.370;2023-07-13T11:52:31;28.90;99.90
12602;DHT22;30282;16.436;99.370;2023-07-13T11:55:13;29.00;99.90
12602;DHT22;30282;16.436;99.370;2023-07-13T11:57:47;29.10;99.90
12602;DHT22;30282;16.436;99.370;2023-07-13T12:00:21;29.30;99.90
12602;DHT22;30282;16.436;99.370;2023-07-13T12:02:52;29.50;99.90
12602;DHT22;30282;16.436;99.370;2023-07-13T12:05:22;29.60;99.90
12602;DHT22;30282;16.436;99.370;2023-07-13T12:07:51;29.60;99.90
12602;DHT22;30282;16.436;99.370;2023-07-13T12:10:26;29.60;99.90
12602;DHT22;30282;16.436;99.370;2023-07-13T12:13:01;29.30;99.90
12602;DHT22;30282;16.436;99.370;2023-07-13T12:15:35;29.20;99.90
12602;DHT22;30282;16.436;99.370;2023-07-13T12:18:12;29.30;99.90
12602;DHT22;30282;16.436;99.370;2023-07-13T12:20:42;29.30;99.90
12602;DHT22;30282;16.436;99.370;2023-07-13T12:23:21;29.50;99.90
12602;DHT22;30282;16.436;99.370;2023-07-13T12:25:53;29.60;99.90
12602;DHT22;30282;16.436;99.370;2023-07-13T12:28:30;29.70;99.90
12602;DHT22;30282;16.436;99.370;2023-07-13T12:31:01;29.70;99.90
12602;DHT22;30282;16.436;99.370;2023-07-13T12:33:31;29.60;99.90
12602;DHT22;30282;16.436;99.370;2023-07-13T12:36:05;29.40;99.90
12602;DHT22;30282;16.436;99.370;2023-07-13T12:38:35;29.20;99.90
12602;DHT22;30282;16.436;99.370;2023-07-13T12:41:09;29.10;99.90
12602;DHT22;30282;16.436;99.370;2023-07-13T12:43:44;29.20;99.90
12602;DHT22;30282;16.436;99.370;2023-07-13T12:46:19;29.30;99.90
12602;DHT22;30282;16.436;99.370;2023-07-13T12:48:50;29.30;99.90
12602;DHT22;30282;16.436;99.370;2023-07-13T12:51:22;29.30;99.90
12602;DHT22;30282;16.436;99.370;2023-07-13T12:53:57;29.40;99.90
12602;DHT22;30282;16.436;99.370;2023-07-13T12:56:28;29.40;99.90
12602;DHT22;30282;16.436;99.370;2023-07-13T12:59:01;29.30;99.90
12602;DHT22;30282;16.436;99.370;2023-07-13T13:01:34;29.20;99.90
12602;DHT22;30282;16.436;99.370;2023-07-13T13:04:04;29.30;99.90
12602;DHT22;30282;16.436;99.370;2023-07-13T13:06:35;29.30;99.90
12602;DHT22;30282;16.436;99.370;2023-07-13T13:09:05;29.30;99.90
12602;DHT22;30282;16.436;99.370;2023-07-13T13:11:40;29.40;99.90
12602;DHT22;30282;16.436;99.370;2023-07-13T13:14:09;29.40;99.90
12602;DHT22;30282;16.436;99.370;2023-07-13T13:16:46;29.40;99.90
12602;DHT22;30282;16.436;99.370;2023-07-13T13:19:19;29.30;99.90
12602;DHT22;30282;16.436;99.370;2023-07-13T13:21:49;29.40;99.90
12602;DHT22;30282;16.436;99.370;2023-07-13T13:24:21;29.50;99.90
12602;DHT22;30282;16.436;99.370;2023-07-13T13:26:53;29.50;99.90
12602;DHT22;30282;16.436;99.370;2023-07-13T13:29:24;29.50;99.90
12602;DHT22;30282;16.436;99.370;2023-07-13T13:31:54;29.50;99.90
12602;DHT22;30282;16.436;99.370;2023-07-13T13:34:24;29.60;99.90
12602;DHT22;30282;16.436;99.370;2023-07-13T13:36:54;29.50;99.90
12602;DHT22;30282;16.436;99.370;2023-07-13T13:39:24;29.60;99.90
12602;DHT22;30282;16.436;99.370;2023-07-13T13:41:55;29.50;99.90
12602;DHT22;30282;16.436;99.370;2023-07-13T13:44:24;29.60;99.90
12602;DHT22;30282;16.436;99.370;2023-07-13T13:46:54;29.60;99.90
12602;DHT22;30282;16.436;99.370;2023-07-13T13:49:27;29.70;99.90
12602;DHT22;30282;16.436;99.370;2023-07-13T13:51:57;29.70;99.90
12602;DHT22;30282;16.436;99.370;2023-07-13T13:54:26;29.70;99.90
12602;DHT22;30282;16.436;99.370;2023-07-13T13:56:57;29.60;99.90
12602;DHT22;30282;16.436;99.370;2023-07-13T13:59:27;29.70;99.90
12602;DHT22;30282;16.436;99.370;2023-07-13T14:01:56;29.60;99.90
12602;DHT22;30282;16.436;99.370;2023-07-13T14:04:27;29.60;99.90
12602;DHT22;30282;16.436;99.370;2023-07-13T14:06:56;29.60;99.90
12602;DHT22;30282;16.436;99.370;2023-07-13T14:09:25;29.60;99.90
12602;DHT22;30282;16.436;99.370;2023-07-13T14:11:56;29.60;99.90
12602;DHT22;30282;16.436;99.370;2023-07-13T14:14:26;29.60;99.90
12602;DHT22;30282;16.436;99.370;2023-07-13T14:16:57;29.60;99.90
12602;DHT22;30282;16.436;99.370;2023-07-13T14:19:26;29.60;99.90
12602;DHT22;30282;16.436;99.370;2023-07-13T14:21:58;29.60;99.90
12602;DHT22;30282;16.436;99.370;2023-07-13T14:24:27;29.60;99.90
12602;DHT22;30282;16.436;99.370;2023-07-13T14:26:58;29.60;99.90
12602;DHT22;30282;16.436;99.370;2023-07-13T14:29:31;29.50;99.90
12602;DHT22;30282;16.436;99.370;2023-07-13T14:32:00;29.40;99.90
12602;DHT22;30282;16.436;99.370;2023-07-13T14:34:30;29.40;99.90
12602;DHT22;30282;16.436;99.370;2023-07-13T14:36:59;29.40;99.90
12602;DHT22;30282;16.436;99.370;2023-07-13T14:39:34;29.40;99.90
12602;DHT22;30282;16.436;99.370;2023-07-13T14:42:05;29.40;99.90
12602;DHT22;30282;16.436;99.370;2023-07-13T14:44:34;29.30;99.90
12602;DHT22;30282;16.436;99.370;2023-07-13T14:47:05;29.20;99.90
12602;DHT22;30282;16.436;99.370;2023-07-13T14:49:37;29.00;99.90
12602;DHT22;30282;16.436;99.370;2023-07-13T14:52:12;28.90;99.90
12602;DHT22;30282;16.436;99.370;2023-07-13T14:54:45;29.00;99.90
12602;DHT22;30282;16.436;99.370;2023-07-13T14:57:29;28.90;99.90
12602;DHT22;30282;16.436;99.370;2023-07-13T15:00:01;28.80;99.90
12602;DHT22;30282;16.436;99.370;2023-07-13T15:02:34;28.90;99.90
12602;DHT22;30282;16.436;99.370;2023-07-13T15:05:14;28.80;99.90
12602;DHT22;30282;16.436;99.370;2023-07-13T15:07:44;28.80;99.90
12602;DHT22;30282;16.436;99.370;2023-07-13T15:10:16;28.90;99.90
12602;DHT22;30282;16.436;99.370;2023-07-13T15:12:48;28.90;99.90
12602;DHT22;30282;16.436;99.370;2023-07-13T15:15:17;28.90;99.90
12602;DHT22;30282;16.436;99.370;2023-07-13T15:17:49;29.00;99.90
12602;DHT22;30282;16.436;99.370;2023-07-13T15:20:25;29.00;99.90
12602;DHT22;30282;16.436;99.370;2023-07-13T15:22:58;28.90;99.90
12602;DHT22;30282;16.436;99.370;2023-07-13T15:25:28;28.90;99.90
12602;DHT22;30282;16.436;99.370;2023-07-13T15:28:00;29.00;99.90
12602;DHT22;30282;16.436;99.370;2023-07-13T15:30:31;29.00;99.90
12602;DHT22;30282;16.436;99.370;2023-07-13T15:33:11;29.00;99.90
12602;DHT22;30282;16.436;99.370;2023-07-13T15:35:44;28.90;99.90
12602;DHT22;30282;16.436;99.370;2023-07-13T15:38:19;28.90;99.90
12602;DHT22;30282;16.436;99.370;2023-07-13T15:40:49;28.90;99.90
12602;DHT22;30282;16.436;99.370;2023-07-13T15:43:23;28.90;99.90
12602;DHT22;30282;16.436;99.370;2023-07-13T15:45:55;28.80;99.90
12602;DHT22;30282;16.436;99.370;2023-07-13T15:48:33;28.70;99.90
12602;DHT22;30282;16.436;99.370;2023-07-13T15:51:04;28.60;99.90
12602;DHT22;30282;16.436;99.370;2023-07-13T15:53:34;28.50;99.90
12602;DHT22;30282;16.436;99.370;2023-07-13T15:56:22;28.40;99.90
12602;DHT22;30282;16.436;99.370;2023-07-13T15:58:54;28.30;99.90
12602;DHT22;30282;16.436;99.370;2023-07-13T16:01:25;28.40;99.90
12602;DHT22;30282;16.436;99.370;2023-07-13T16:03:55;28.50;99.90
12602;DHT22;30282;16.436;99.370;2023-07-13T16:06:26;28.60;99.90